Airport View

Enter AWOS ICAO identifier for current METAR.

ex. KFNL

PALU 210055Z AUTO 23005KT 10SM SCT031 06/00 A2946 RMK AO2 SLP976 T00561004

21 Sep 2019 01:01

Phone: 907-552-9730

Other Area AWOS: PAPO - PAVL - PPIZ - PAWN

TAF PAOT 202334Z 2100/2124 27006KT P6SM VCSH SCT025 BKN035 OVC050 FM211200 24006KT P6SM VCSH SCT025 BKN035 OVC050